sensor_id;sensor_type;location;lat;lon;timestamp;P1;durP1;ratioP1;P2;durP2;ratioP2
62925;SDS011;55732;52.248;-0.844;2023-03-12T00:01:38;11.10;;;7.50;;
62925;SDS011;55732;52.248;-0.844;2023-03-12T00:04:04;7.80;;;6.70;;
62925;SDS011;55732;52.248;-0.844;2023-03-12T00:06:30;8.40;;;6.60;;
62925;SDS011;55732;52.248;-0.844;2023-03-12T00:08:56;8.20;;;6.90;;
62925;SDS011;55732;52.248;-0.844;2023-03-12T00:11:22;9.00;;;6.80;;
62925;SDS011;55732;52.248;-0.844;2023-03-12T00:13:51;10.20;;;7.10;;
62925;SDS011;55732;52.248;-0.844;2023-03-12T00:16:18;10.50;;;7.70;;
62925;SDS011;55732;52.248;-0.844;2023-03-12T00:18:46;11.20;;;8.30;;
62925;SDS011;55732;52.248;-0.844;2023-03-12T00:21:13;10.20;;;7.80;;
62925;SDS011;55732;52.248;-0.844;2023-03-12T00:23:39;12.00;;;8.00;;
62925;SDS011;55732;52.248;-0.844;2023-03-12T00:26:05;12.00;;;8.40;;
62925;SDS011;55732;52.248;-0.844;2023-03-12T00:28:33;10.80;;;8.30;;
62925;SDS011;55732;52.248;-0.844;2023-03-12T00:30:59;10.80;;;7.60;;
62925;SDS011;55732;52.248;-0.844;2023-03-12T00:33:26;11.60;;;8.90;;
62925;SDS011;55732;52.248;-0.844;2023-03-12T00:35:53;12.00;;;8.20;;
62925;SDS011;55732;52.248;-0.844;2023-03-12T00:38:19;11.20;;;8.00;;
62925;SDS011;55732;52.248;-0.844;2023-03-12T00:40:45;11.40;;;8.20;;
62925;SDS011;55732;52.248;-0.844;2023-03-12T00:43:10;11.70;;;8.00;;
62925;SDS011;55732;52.248;-0.844;2023-03-12T00:45:36;13.10;;;8.30;;
62925;SDS011;55732;52.248;-0.844;2023-03-12T00:48:01;15.40;;;8.70;;
62925;SDS011;55732;52.248;-0.844;2023-03-12T00:50:27;11.70;;;8.90;;
62925;SDS011;55732;52.248;-0.844;2023-03-12T00:52:52;11.10;;;8.30;;
62925;SDS011;55732;52.248;-0.844;2023-03-12T00:55:18;12.60;;;8.90;;
62925;SDS011;55732;52.248;-0.844;2023-03-12T00:57:43;10.90;;;8.00;;
62925;SDS011;55732;52.248;-0.844;2023-03-12T01:00:09;13.20;;;9.20;;
62925;SDS011;55732;52.248;-0.844;2023-03-12T01:02:36;11.80;;;8.30;;
62925;SDS011;55732;52.248;-0.844;2023-03-12T01:05:04;11.40;;;8.00;;
62925;SDS011;55732;52.248;-0.844;2023-03-12T01:07:30;13.40;;;8.50;;
62925;SDS011;55732;52.248;-0.844;2023-03-12T01:09:56;13.80;;;8.30;;
62925;SDS011;55732;52.248;-0.844;2023-03-12T01:12:21;12.50;;;7.90;;
62925;SDS011;55732;52.248;-0.844;2023-03-12T01:14:47;13.50;;;8.60;;
62925;SDS011;55732;52.248;-0.844;2023-03-12T01:17:12;13.10;;;8.60;;
62925;SDS011;55732;52.248;-0.844;2023-03-12T01:19:38;12.00;;;8.60;;
62925;SDS011;55732;52.248;-0.844;2023-03-12T01:22:03;12.30;;;8.30;;
62925;SDS011;55732;52.248;-0.844;2023-03-12T01:24:29;16.70;;;9.70;;
62925;SDS011;55732;52.248;-0.844;2023-03-12T01:26:54;12.40;;;7.90;;
62925;SDS011;55732;52.248;-0.844;2023-03-12T01:29:20;16.40;;;8.50;;
62925;SDS011;55732;52.248;-0.844;2023-03-12T01:31:46;13.00;;;8.00;;
62925;SDS011;55732;52.248;-0.844;2023-03-12T01:34:12;10.80;;;7.50;;
62925;SDS011;55732;52.248;-0.844;2023-03-12T01:36:37;14.90;;;8.40;;
62925;SDS011;55732;52.248;-0.844;2023-03-12T01:39:03;13.90;;;7.70;;
62925;SDS011;55732;52.248;-0.844;2023-03-12T01:41:29;11.70;;;7.70;;
62925;SDS011;55732;52.248;-0.844;2023-03-12T01:44:00;10.70;;;7.10;;
62925;SDS011;55732;52.248;-0.844;2023-03-12T01:46:29;13.50;;;7.80;;
62925;SDS011;55732;52.248;-0.844;2023-03-12T01:48:58;13.00;;;7.40;;
62925;SDS011;55732;52.248;-0.844;2023-03-12T01:51:32;13.90;;;7.20;;
62925;SDS011;55732;52.248;-0.844;2023-03-12T01:54:04;13.70;;;7.40;;
62925;SDS011;55732;52.248;-0.844;2023-03-12T01:56:37;9.70;;;6.40;;
62925;SDS011;55732;52.248;-0.844;2023-03-12T01:59:11;9.00;;;6.80;;
62925;SDS011;55732;52.248;-0.844;2023-03-12T02:01:41;13.70;;;7.10;;
62925;SDS011;55732;52.248;-0.844;2023-03-12T02:04:07;12.10;;;6.60;;
62925;SDS011;55732;52.248;-0.844;2023-03-12T02:06:37;14.80;;;6.90;;
62925;SDS011;55732;52.248;-0.844;2023-03-12T02:09:08;15.70;;;7.70;;
62925;SDS011;55732;52.248;-0.844;2023-03-12T02:11:34;11.10;;;6.80;;
62925;SDS011;55732;52.248;-0.844;2023-03-12T02:14:00;9.70;;;6.10;;
62925;SDS011;55732;52.248;-0.844;2023-03-12T02:16:26;11.80;;;6.10;;
62925;SDS011;55732;52.248;-0.844;2023-03-12T02:18:52;14.00;;;6.50;;
62925;SDS011;55732;52.248;-0.844;2023-03-12T02:21:23;11.00;;;6.30;;
62925;SDS011;55732;52.248;-0.844;2023-03-12T02:23:56;12.70;;;7.00;;
62925;SDS011;55732;52.248;-0.844;2023-03-12T02:26:30;11.40;;;5.90;;
62925;SDS011;55732;52.248;-0.844;2023-03-12T02:28:57;14.80;;;6.30;;
62925;SDS011;55732;52.248;-0.844;2023-03-12T02:31:26;14.40;;;6.00;;
62925;SDS011;55732;52.248;-0.844;2023-03-12T02:33:56;11.30;;;6.30;;
62925;SDS011;55732;52.248;-0.844;2023-03-12T02:36:22;19.40;;;6.40;;
62925;SDS011;55732;52.248;-0.844;2023-03-12T02:38:48;9.80;;;5.50;;
62925;SDS011;55732;52.248;-0.844;2023-03-12T02:41:20;13.50;;;5.90;;
62925;SDS011;55732;52.248;-0.844;2023-03-12T02:43:48;15.70;;;5.60;;
62925;SDS011;55732;52.248;-0.844;2023-03-12T02:46:37;12.10;;;5.30;;
62925;SDS011;55732;52.248;-0.844;2023-03-12T02:49:06;12.60;;;5.00;;
62925;SDS011;55732;52.248;-0.844;2023-03-12T02:51:33;11.80;;;4.70;;
62925;SDS011;55732;52.248;-0.844;2023-03-12T02:53:58;16.70;;;6.10;;
62925;SDS011;55732;52.248;-0.844;2023-03-12T02:56:25;11.80;;;4.50;;
62925;SDS011;55732;52.248;-0.844;2023-03-12T02:58:53;13.40;;;4.90;;
62925;SDS011;55732;52.248;-0.844;2023-03-12T03:01:18;11.20;;;4.50;;
62925;SDS011;55732;52.248;-0.844;2023-03-12T03:03:45;16.10;;;5.90;;
62925;SDS011;55732;52.248;-0.844;2023-03-12T03:06:11;11.60;;;5.20;;
62925;SDS011;55732;52.248;-0.844;2023-03-12T03:08:37;15.00;;;5.40;;
62925;SDS011;55732;52.248;-0.844;2023-03-12T03:11:03;26.40;;;7.10;;
62925;SDS011;55732;52.248;-0.844;2023-03-12T03:13:29;9.20;;;4.30;;
62925;SDS011;55732;52.248;-0.844;2023-03-12T03:15:55;15.30;;;5.30;;
62925;SDS011;55732;52.248;-0.844;2023-03-12T03:20:59;13.40;;;4.30;;
62925;SDS011;55732;52.248;-0.844;2023-03-12T03:23:27;15.80;;;5.30;;
62925;SDS011;55732;52.248;-0.844;2023-03-12T03:25:53;16.30;;;5.00;;
62925;SDS011;55732;52.248;-0.844;2023-03-12T03:28:20;13.30;;;5.30;;
62925;SDS011;55732;52.248;-0.844;2023-03-12T03:30:46;12.10;;;4.80;;
62925;SDS011;55732;52.248;-0.844;2023-03-12T03:33:12;21.20;;;5.40;;
62925;SDS011;55732;52.248;-0.844;2023-03-12T03:35:38;15.00;;;5.00;;
62925;SDS011;55732;52.248;-0.844;2023-03-12T03:38:03;11.00;;;4.10;;
62925;SDS011;55732;52.248;-0.844;2023-03-12T03:40:29;18.40;;;4.60;;
62925;SDS011;55732;52.248;-0.844;2023-03-12T03:42:54;16.40;;;3.50;;
62925;SDS011;55732;52.248;-0.844;2023-03-12T03:45:20;16.10;;;4.30;;
62925;SDS011;55732;52.248;-0.844;2023-03-12T03:47:46;12.10;;;3.80;;
62925;SDS011;55732;52.248;-0.844;2023-03-12T03:50:11;18.10;;;3.70;;
62925;SDS011;55732;52.248;-0.844;2023-03-12T03:52:37;23.20;;;4.40;;
62925;SDS011;55732;52.248;-0.844;2023-03-12T03:55:03;22.60;;;4.70;;
62925;SDS011;55732;52.248;-0.844;2023-03-12T03:57:29;17.00;;;4.00;;
62925;SDS011;55732;52.248;-0.844;2023-03-12T03:59:54;19.10;;;4.70;;
62925;SDS011;55732;52.248;-0.844;2023-03-12T04:02:20;22.40;;;4.40;;
62925;SDS011;55732;52.248;-0.844;2023-03-12T04:04:46;18.70;;;3.90;;
62925;SDS011;55732;52.248;-0.844;2023-03-12T04:07:11;21.10;;;4.50;;
62925;SDS011;55732;52.248;-0.844;2023-03-12T04:09:37;21.80;;;4.90;;
62925;SDS011;55732;52.248;-0.844;2023-03-12T04:12:02;14.30;;;3.50;;
62925;SDS011;55732;52.248;-0.844;2023-03-12T04:14:28;17.90;;;4.00;;
62925;SDS011;55732;52.248;-0.844;2023-03-12T04:16:53;20.30;;;4.00;;
62925;SDS011;55732;52.248;-0.844;2023-03-12T04:19:19;16.50;;;3.30;;
62925;SDS011;55732;52.248;-0.844;2023-03-12T04:21:44;20.10;;;4.20;;
62925;SDS011;55732;52.248;-0.844;2023-03-12T04:24:12;22.60;;;4.10;;
62925;SDS011;55732;52.248;-0.844;2023-03-12T04:26:39;19.50;;;3.90;;
62925;SDS011;55732;52.248;-0.844;2023-03-12T04:29:05;25.70;;;5.00;;
62925;SDS011;55732;52.248;-0.844;2023-03-12T04:31:31;17.40;;;4.90;;
62925;SDS011;55732;52.248;-0.844;2023-03-12T04:33:56;19.70;;;3.90;;
62925;SDS011;55732;52.248;-0.844;2023-03-12T04:36:22;25.60;;;4.80;;
62925;SDS011;55732;52.248;-0.844;2023-03-12T04:38:47;26.40;;;4.20;;
62925;SDS011;55732;52.248;-0.844;2023-03-12T04:41:13;24.80;;;4.30;;
62925;SDS011;55732;52.248;-0.844;2023-03-12T04:43:40;23.70;;;4.20;;
62925;SDS011;55732;52.248;-0.844;2023-03-12T04:46:06;20.40;;;4.10;;
62925;SDS011;55732;52.248;-0.844;2023-03-12T04:48:32;21.80;;;3.90;;
62925;SDS011;55732;52.248;-0.844;2023-03-12T04:50:59;15.70;;;3.90;;
62925;SDS011;55732;52.248;-0.844;2023-03-12T04:53:24;16.80;;;3.60;;
62925;SDS011;55732;52.248;-0.844;2023-03-12T04:55:50;26.50;;;4.60;;
62925;SDS011;55732;52.248;-0.844;2023-03-12T04:58:16;26.90;;;4.10;;
62925;SDS011;55732;52.248;-0.844;2023-03-12T05:00:43;21.80;;;4.30;;
62925;SDS011;55732;52.248;-0.844;2023-03-12T05:03:09;23.70;;;3.90;;
62925;SDS011;55732;52.248;-0.844;2023-03-12T05:05:34;28.50;;;5.40;;
62925;SDS011;55732;52.248;-0.844;2023-03-12T05:08:00;21.50;;;4.50;;
62925;SDS011;55732;52.248;-0.844;2023-03-12T05:10:26;29.70;;;4.60;;
62925;SDS011;55732;52.248;-0.844;2023-03-12T05:12:52;20.00;;;4.20;;
62925;SDS011;55732;52.248;-0.844;2023-03-12T05:15:18;19.20;;;3.10;;
62925;SDS011;55732;52.248;-0.844;2023-03-12T05:17:43;27.40;;;4.20;;
62925;SDS011;55732;52.248;-0.844;2023-03-12T05:20:09;18.10;;;3.60;;
62925;SDS011;55732;52.248;-0.844;2023-03-12T05:22:36;18.10;;;4.00;;
62925;SDS011;55732;52.248;-0.844;2023-03-12T05:25:01;24.30;;;4.10;;
62925;SDS011;55732;52.248;-0.844;2023-03-12T05:27:27;24.10;;;4.10;;
62925;SDS011;55732;52.248;-0.844;2023-03-12T05:29:53;25.70;;;4.00;;
62925;SDS011;55732;52.248;-0.844;2023-03-12T05:32:18;20.60;;;4.40;;
62925;SDS011;55732;52.248;-0.844;2023-03-12T05:34:44;15.50;;;3.70;;
62925;SDS011;55732;52.248;-0.844;2023-03-12T05:37:09;24.50;;;4.80;;
62925;SDS011;55732;52.248;-0.844;2023-03-12T05:39:35;23.80;;;4.30;;
62925;SDS011;55732;52.248;-0.844;2023-03-12T05:42:01;23.60;;;4.90;;
62925;SDS011;55732;52.248;-0.844;2023-03-12T05:44:26;19.60;;;3.90;;
62925;SDS011;55732;52.248;-0.844;2023-03-12T05:46:52;20.20;;;4.20;;
62925;SDS011;55732;52.248;-0.844;2023-03-12T05:49:18;30.30;;;5.10;;
62925;SDS011;55732;52.248;-0.844;2023-03-12T05:51:45;20.00;;;4.00;;
62925;SDS011;55732;52.248;-0.844;2023-03-12T05:54:12;25.30;;;4.60;;
62925;SDS011;55732;52.248;-0.844;2023-03-12T05:56:38;24.50;;;4.60;;
62925;SDS011;55732;52.248;-0.844;2023-03-12T05:59:04;27.00;;;5.20;;
62925;SDS011;55732;52.248;-0.844;2023-03-12T06:01:30;24.50;;;4.50;;
62925;SDS011;55732;52.248;-0.844;2023-03-12T06:03:56;25.80;;;4.60;;
62925;SDS011;55732;52.248;-0.844;2023-03-12T06:06:21;15.80;;;3.80;;
62925;SDS011;55732;52.248;-0.844;2023-03-12T06:08:47;16.50;;;3.90;;
62925;SDS011;55732;52.248;-0.844;2023-03-12T06:11:12;16.50;;;3.70;;
62925;SDS011;55732;52.248;-0.844;2023-03-12T06:13:38;24.90;;;4.30;;
62925;SDS011;55732;52.248;-0.844;2023-03-12T06:16:05;20.00;;;4.70;;
62925;SDS011;55732;52.248;-0.844;2023-03-12T06:18:35;19.50;;;3.80;;
62925;SDS011;55732;52.248;-0.844;2023-03-12T06:21:14;24.50;;;5.40;;
62925;SDS011;55732;52.248;-0.844;2023-03-12T06:23:44;18.20;;;4.60;;
62925;SDS011;55732;52.248;-0.844;2023-03-12T06:26:10;18.80;;;4.20;;
62925;SDS011;55732;52.248;-0.844;2023-03-12T06:28:36;23.70;;;5.10;;
62925;SDS011;55732;52.248;-0.844;2023-03-12T06:31:02;21.60;;;4.10;;
62925;SDS011;55732;52.248;-0.844;2023-03-12T06:33:29;19.10;;;4.10;;
62925;SDS011;55732;52.248;-0.844;2023-03-12T06:35:55;25.90;;;4.70;;
62925;SDS011;55732;52.248;-0.844;2023-03-12T06:38:22;32.40;;;5.50;;
62925;SDS011;55732;52.248;-0.844;2023-03-12T06:43:27;23.30;;;4.50;;
62925;SDS011;55732;52.248;-0.844;2023-03-12T06:45:55;29.10;;;5.00;;
62925;SDS011;55732;52.248;-0.844;2023-03-12T06:50:48;24.20;;;4.30;;
62925;SDS011;55732;52.248;-0.844;2023-03-12T06:53:14;26.50;;;5.20;;
62925;SDS011;55732;52.248;-0.844;2023-03-12T06:55:40;23.70;;;5.00;;
62925;SDS011;55732;52.248;-0.844;2023-03-12T07:00:33;21.20;;;4.40;;
62925;SDS011;55732;52.248;-0.844;2023-03-12T07:02:59;22.20;;;4.80;;
62925;SDS011;55732;52.248;-0.844;2023-03-12T07:05:24;32.20;;;5.80;;
62925;SDS011;55732;52.248;-0.844;2023-03-12T07:07:50;30.90;;;5.80;;
62925;SDS011;55732;52.248;-0.844;2023-03-12T07:10:16;30.50;;;6.30;;
62925;SDS011;55732;52.248;-0.844;2023-03-12T07:12:42;42.00;;;6.10;;
62925;SDS011;55732;52.248;-0.844;2023-03-12T07:15:08;29.40;;;6.10;;
62925;SDS011;55732;52.248;-0.844;2023-03-12T07:17:33;33.60;;;6.50;;
62925;SDS011;55732;52.248;-0.844;2023-03-12T07:19:59;34.20;;;5.60;;
62925;SDS011;55732;52.248;-0.844;2023-03-12T07:22:25;30.80;;;7.10;;
62925;SDS011;55732;52.248;-0.844;2023-03-12T07:24:50;26.90;;;6.30;;
62925;SDS011;55732;52.248;-0.844;2023-03-12T07:27:16;31.50;;;6.50;;
62925;SDS011;55732;52.248;-0.844;2023-03-12T07:29:42;30.70;;;6.10;;
62925;SDS011;55732;52.248;-0.844;2023-03-12T07:32:08;32.10;;;6.40;;
62925;SDS011;55732;52.248;-0.844;2023-03-12T07:34:33;34.30;;;6.90;;
62925;SDS011;55732;52.248;-0.844;2023-03-12T07:36:59;37.40;;;8.20;;
62925;SDS011;55732;52.248;-0.844;2023-03-12T07:39:24;29.30;;;5.90;;
62925;SDS011;55732;52.248;-0.844;2023-03-12T07:41:50;38.00;;;7.20;;
62925;SDS011;55732;52.248;-0.844;2023-03-12T07:44:16;35.70;;;6.70;;
62925;SDS011;55732;52.248;-0.844;2023-03-12T07:46:41;30.80;;;6.30;;
62925;SDS011;55732;52.248;-0.844;2023-03-12T07:49:07;37.60;;;6.90;;
62925;SDS011;55732;52.248;-0.844;2023-03-12T07:51:32;35.80;;;6.80;;
62925;SDS011;55732;52.248;-0.844;2023-03-12T07:53:58;30.90;;;7.20;;
62925;SDS011;55732;52.248;-0.844;2023-03-12T07:56:23;25.50;;;6.30;;
62925;SDS011;55732;52.248;-0.844;2023-03-12T07:58:49;36.10;;;6.40;;
62925;SDS011;55732;52.248;-0.844;2023-03-12T08:01:14;28.00;;;6.70;;
62925;SDS011;55732;52.248;-0.844;2023-03-12T08:03:40;30.10;;;6.90;;
62925;SDS011;55732;52.248;-0.844;2023-03-12T08:06:07;40.30;;;6.80;;
62925;SDS011;55732;52.248;-0.844;2023-03-12T08:08:32;28.10;;;6.60;;
62925;SDS011;55732;52.248;-0.844;2023-03-12T08:10:58;28.90;;;6.40;;
62925;SDS011;55732;52.248;-0.844;2023-03-12T08:13:24;27.90;;;5.50;;
62925;SDS011;55732;52.248;-0.844;2023-03-12T08:15:50;31.90;;;7.30;;
62925;SDS011;55732;52.248;-0.844;2023-03-12T08:18:17;24.20;;;7.10;;
62925;SDS011;55732;52.248;-0.844;2023-03-12T08:20:44;41.20;;;7.30;;
62925;SDS011;55732;52.248;-0.844;2023-03-12T08:23:13;36.30;;;6.60;;
62925;SDS011;55732;52.248;-0.844;2023-03-12T08:25:38;32.80;;;6.30;;
62925;SDS011;55732;52.248;-0.844;2023-03-12T08:28:04;30.80;;;7.20;;
62925;SDS011;55732;52.248;-0.844;2023-03-12T08:30:30;33.80;;;7.10;;
62925;SDS011;55732;52.248;-0.844;2023-03-12T08:32:55;29.50;;;7.90;;
62925;SDS011;55732;52.248;-0.844;2023-03-12T08:35:22;35.10;;;6.80;;
62925;SDS011;55732;52.248;-0.844;2023-03-12T08:37:47;35.60;;;6.90;;
62925;SDS011;55732;52.248;-0.844;2023-03-12T08:40:13;31.70;;;7.50;;
62925;SDS011;55732;52.248;-0.844;2023-03-12T08:42:39;27.20;;;7.00;;
62925;SDS011;55732;52.248;-0.844;2023-03-12T08:45:06;27.60;;;7.80;;
62925;SDS011;55732;52.248;-0.844;2023-03-12T08:47:33;29.60;;;7.80;;
62925;SDS011;55732;52.248;-0.844;2023-03-12T08:49:59;25.60;;;7.70;;
62925;SDS011;55732;52.248;-0.844;2023-03-12T08:52:26;24.20;;;6.60;;
62925;SDS011;55732;52.248;-0.844;2023-03-12T08:54:52;26.30;;;6.70;;
62925;SDS011;55732;52.248;-0.844;2023-03-12T08:57:17;22.40;;;5.90;;
62925;SDS011;55732;52.248;-0.844;2023-03-12T08:59:43;20.70;;;6.90;;
62925;SDS011;55732;52.248;-0.844;2023-03-12T09:02:11;19.90;;;6.30;;
62925;SDS011;55732;52.248;-0.844;2023-03-12T09:04:37;27.60;;;6.60;;
62925;SDS011;55732;52.248;-0.844;2023-03-12T09:07:03;23.00;;;7.30;;
62925;SDS011;55732;52.248;-0.844;2023-03-12T09:09:28;21.80;;;6.60;;
62925;SDS011;55732;52.248;-0.844;2023-03-12T09:11:54;22.30;;;7.00;;
62925;SDS011;55732;52.248;-0.844;2023-03-12T09:14:19;23.20;;;6.80;;
62925;SDS011;55732;52.248;-0.844;2023-03-12T09:16:45;24.90;;;7.50;;
62925;SDS011;55732;52.248;-0.844;2023-03-12T09:19:10;20.70;;;6.60;;
62925;SDS011;55732;52.248;-0.844;2023-03-12T09:21:36;25.60;;;6.70;;
62925;SDS011;55732;52.248;-0.844;2023-03-12T09:24:01;20.90;;;6.10;;
62925;SDS011;55732;52.248;-0.844;2023-03-12T09:26:27;23.60;;;6.20;;
62925;SDS011;55732;52.248;-0.844;2023-03-12T09:28:52;20.80;;;6.40;;
62925;SDS011;55732;52.248;-0.844;2023-03-12T09:31:18;21.60;;;5.80;;
62925;SDS011;55732;52.248;-0.844;2023-03-12T09:33:43;21.30;;;6.60;;
62925;SDS011;55732;52.248;-0.844;2023-03-12T09:36:09;18.70;;;5.20;;
62925;SDS011;55732;52.248;-0.844;2023-03-12T09:38:35;19.60;;;6.20;;
62925;SDS011;55732;52.248;-0.844;2023-03-12T09:45:58;16.40;;;6.30;;
62925;SDS011;55732;52.248;-0.844;2023-03-12T09:48:31;22.40;;;6.80;;
62925;SDS011;55732;52.248;-0.844;2023-03-12T09:51:07;17.70;;;6.10;;
62925;SDS011;55732;52.248;-0.844;2023-03-12T09:53:48;19.50;;;5.90;;
62925;SDS011;55732;52.248;-0.844;2023-03-12T09:56:19;20.80;;;6.70;;
62925;SDS011;55732;52.248;-0.844;2023-03-12T09:58:45;21.00;;;6.50;;
62925;SDS011;55732;52.248;-0.844;2023-03-12T10:06:33;16.80;;;6.00;;
62925;SDS011;55732;52.248;-0.844;2023-03-12T10:12:10;19.00;;;4.90;;
62925;SDS011;55732;52.248;-0.844;2023-03-12T10:23:03;15.80;;;4.80;;
62925;SDS011;55732;52.248;-0.844;2023-03-12T10:28:38;20.80;;;5.30;;
62925;SDS011;55732;52.248;-0.844;2023-03-12T10:31:13;20.60;;;5.50;;
62925;SDS011;55732;52.248;-0.844;2023-03-12T10:34:30;18.40;;;5.40;;
62925;SDS011;55732;52.248;-0.844;2023-03-12T10:37:04;22.60;;;5.60;;
62925;SDS011;55732;52.248;-0.844;2023-03-12T10:39:51;21.90;;;5.80;;
62925;SDS011;55732;52.248;-0.844;2023-03-12T10:42:20;20.60;;;5.80;;
62925;SDS011;55732;52.248;-0.844;2023-03-12T10:44:50;20.00;;;5.50;;
62925;SDS011;55732;52.248;-0.844;2023-03-12T10:49:52;19.60;;;5.30;;
62925;SDS011;55732;52.248;-0.844;2023-03-12T10:52:21;18.20;;;5.80;;
62925;SDS011;55732;52.248;-0.844;2023-03-12T10:54:49;19.00;;;5.40;;
62925;SDS011;55732;52.248;-0.844;2023-03-12T10:57:16;18.10;;;5.20;;
62925;SDS011;55732;52.248;-0.844;2023-03-12T10:59:44;21.70;;;5.20;;
62925;SDS011;55732;52.248;-0.844;2023-03-12T11:02:32;16.90;;;5.10;;
62925;SDS011;55732;52.248;-0.844;2023-03-12T11:05:06;16.90;;;5.40;;
62925;SDS011;55732;52.248;-0.844;2023-03-12T11:07:44;15.60;;;4.70;;
62925;SDS011;55732;52.248;-0.844;2023-03-12T11:10:12;19.00;;;5.30;;
62925;SDS011;55732;52.248;-0.844;2023-03-12T11:15:27;17.70;;;4.60;;
62925;SDS011;55732;52.248;-0.844;2023-03-12T11:20:43;24.10;;;4.80;;
62925;SDS011;55732;52.248;-0.844;2023-03-12T11:23:13;22.40;;;5.50;;
62925;SDS011;55732;52.248;-0.844;2023-03-12T11:25:40;17.90;;;4.50;;
62925;SDS011;55732;52.248;-0.844;2023-03-12T11:28:06;22.50;;;5.30;;
62925;SDS011;55732;52.248;-0.844;2023-03-12T11:30:41;25.60;;;5.40;;
62925;SDS011;55732;52.248;-0.844;2023-03-12T11:33:08;17.10;;;4.40;;
62925;SDS011;55732;52.248;-0.844;2023-03-12T11:38:19;20.30;;;4.70;;
62925;SDS011;55732;52.248;-0.844;2023-03-12T11:49:34;17.10;;;4.50;;
62925;SDS011;55732;52.248;-0.844;2023-03-12T12:00:18;23.00;;;5.40;;
62925;SDS011;55732;52.248;-0.844;2023-03-12T12:22:31;22.30;;;4.70;;
62925;SDS011;55732;52.248;-0.844;2023-03-12T12:35:42;10.80;;;3.20;;
62925;SDS011;55732;52.248;-0.844;2023-03-12T12:38:09;16.30;;;4.90;;
62925;SDS011;55732;52.248;-0.844;2023-03-12T12:43:29;14.70;;;3.70;;
62925;SDS011;55732;52.248;-0.844;2023-03-12T12:51:23;11.70;;;3.30;;
62925;SDS011;55732;52.248;-0.844;2023-03-12T12:53:55;9.10;;;2.70;;
62925;SDS011;55732;52.248;-0.844;2023-03-12T12:56:47;12.20;;;3.60;;
62925;SDS011;55732;52.248;-0.844;2023-03-12T13:02:02;11.40;;;3.50;;
62925;SDS011;55732;52.248;-0.844;2023-03-12T13:04:33;13.50;;;3.60;;
62925;SDS011;55732;52.248;-0.844;2023-03-12T13:09:37;12.80;;;3.20;;
62925;SDS011;55732;52.248;-0.844;2023-03-12T13:14:38;19.40;;;4.70;;
62925;SDS011;55732;52.248;-0.844;2023-03-12T13:17:07;13.30;;;3.30;;
62925;SDS011;55732;52.248;-0.844;2023-03-12T13:20:10;17.90;;;3.90;;
62925;SDS011;55732;52.248;-0.844;2023-03-12T13:22:44;10.60;;;3.70;;
62925;SDS011;55732;52.248;-0.844;2023-03-12T13:28:37;17.80;;;3.90;;
62925;SDS011;55732;52.248;-0.844;2023-03-12T13:36:23;21.70;;;5.30;;
62925;SDS011;55732;52.248;-0.844;2023-03-12T13:47:04;22.80;;;4.90;;
62925;SDS011;55732;52.248;-0.844;2023-03-12T14:16:56;17.70;;;4.20;;
62925;SDS011;55732;52.248;-0.844;2023-03-12T14:19:24;20.90;;;5.00;;
62925;SDS011;55732;52.248;-0.844;2023-03-12T14:21:52;15.90;;;4.50;;
62925;SDS011;55732;52.248;-0.844;2023-03-12T14:26:53;18.90;;;4.90;;
62925;SDS011;55732;52.248;-0.844;2023-03-12T14:29:27;16.50;;;4.00;;
62925;SDS011;55732;52.248;-0.844;2023-03-12T14:32:01;21.20;;;4.90;;
62925;SDS011;55732;52.248;-0.844;2023-03-12T14:34:30;13.10;;;3.40;;
62925;SDS011;55732;52.248;-0.844;2023-03-12T14:37:05;13.00;;;3.50;;
62925;SDS011;55732;52.248;-0.844;2023-03-12T14:39:53;21.10;;;4.90;;
62925;SDS011;55732;52.248;-0.844;2023-03-12T14:42:23;20.20;;;5.20;;
62925;SDS011;55732;52.248;-0.844;2023-03-12T14:45:00;16.80;;;3.60;;
62925;SDS011;55732;52.248;-0.844;2023-03-12T14:47:40;25.90;;;5.20;;
62925;SDS011;55732;52.248;-0.844;2023-03-12T14:50:15;18.20;;;3.50;;
62925;SDS011;55732;52.248;-0.844;2023-03-12T14:52:41;22.80;;;3.80;;
62925;SDS011;55732;52.248;-0.844;2023-03-12T14:55:10;19.20;;;3.90;;
62925;SDS011;55732;52.248;-0.844;2023-03-12T14:57:38;15.80;;;4.00;;
62925;SDS011;55732;52.248;-0.844;2023-03-12T15:00:04;17.30;;;4.50;;
62925;SDS011;55732;52.248;-0.844;2023-03-12T15:02:38;18.30;;;4.60;;
62925;SDS011;55732;52.248;-0.844;2023-03-12T15:05:13;17.40;;;3.90;;
62925;SDS011;55732;52.248;-0.844;2023-03-12T15:07:44;20.10;;;3.70;;
62925;SDS011;55732;52.248;-0.844;2023-03-12T15:12:47;14.60;;;3.90;;
62925;SDS011;55732;52.248;-0.844;2023-03-12T15:18:05;19.20;;;3.90;;
62925;SDS011;55732;52.248;-0.844;2023-03-12T15:20:32;19.70;;;4.60;;
62925;SDS011;55732;52.248;-0.844;2023-03-12T15:22:59;24.80;;;4.80;;
62925;SDS011;55732;52.248;-0.844;2023-03-12T15:28:06;15.60;;;3.80;;
62925;SDS011;55732;52.248;-0.844;2023-03-12T15:30:32;12.30;;;3.30;;
62925;SDS011;55732;52.248;-0.844;2023-03-12T15:33:06;25.90;;;4.50;;
62925;SDS011;55732;52.248;-0.844;2023-03-12T15:38:46;18.60;;;4.80;;
62925;SDS011;55732;52.248;-0.844;2023-03-12T15:41:22;18.80;;;4.30;;
62925;SDS011;55732;52.248;-0.844;2023-03-12T15:43:55;17.20;;;4.00;;
62925;SDS011;55732;52.248;-0.844;2023-03-12T15:46:22;16.10;;;3.70;;
62925;SDS011;55732;52.248;-0.844;2023-03-12T15:48:50;12.10;;;3.60;;
62925;SDS011;55732;52.248;-0.844;2023-03-12T15:54:01;23.00;;;4.60;;
62925;SDS011;55732;52.248;-0.844;2023-03-12T15:56:29;17.20;;;4.10;;
62925;SDS011;55732;52.248;-0.844;2023-03-12T15:59:01;18.80;;;4.20;;
62925;SDS011;55732;52.248;-0.844;2023-03-12T16:01:29;17.50;;;4.00;;
62925;SDS011;55732;52.248;-0.844;2023-03-12T16:04:19;13.30;;;3.40;;
62925;SDS011;55732;52.248;-0.844;2023-03-12T16:06:46;14.00;;;3.70;;
62925;SDS011;55732;52.248;-0.844;2023-03-12T16:09:17;11.20;;;3.10;;
62925;SDS011;55732;52.248;-0.844;2023-03-12T16:11:45;13.10;;;3.80;;
62925;SDS011;55732;52.248;-0.844;2023-03-12T16:14:14;14.70;;;3.40;;
62925;SDS011;55732;52.248;-0.844;2023-03-12T16:17:01;13.40;;;2.90;;
62925;SDS011;55732;52.248;-0.844;2023-03-12T16:19:27;14.00;;;3.20;;
62925;SDS011;55732;52.248;-0.844;2023-03-12T16:21:54;10.30;;;3.30;;
62925;SDS011;55732;52.248;-0.844;2023-03-12T16:24:20;13.80;;;3.20;;
62925;SDS011;55732;52.248;-0.844;2023-03-12T16:26:50;11.80;;;3.30;;
62925;SDS011;55732;52.248;-0.844;2023-03-12T16:29:17;17.80;;;3.10;;
62925;SDS011;55732;52.248;-0.844;2023-03-12T16:31:44;14.30;;;3.10;;
62925;SDS011;55732;52.248;-0.844;2023-03-12T16:34:16;10.30;;;2.80;;
62925;SDS011;55732;52.248;-0.844;2023-03-12T16:36:41;8.50;;;2.50;;
62925;SDS011;55732;52.248;-0.844;2023-03-12T16:39:06;10.10;;;2.80;;
62925;SDS011;55732;52.248;-0.844;2023-03-12T16:41:32;11.50;;;2.90;;
62925;SDS011;55732;52.248;-0.844;2023-03-12T16:43:58;10.50;;;3.10;;
62925;SDS011;55732;52.248;-0.844;2023-03-12T16:46:25;12.60;;;2.50;;
62925;SDS011;55732;52.248;-0.844;2023-03-12T16:48:54;10.90;;;3.10;;
62925;SDS011;55732;52.248;-0.844;2023-03-12T16:51:20;10.80;;;2.80;;
62925;SDS011;55732;52.248;-0.844;2023-03-12T16:53:45;12.80;;;3.00;;
62925;SDS011;55732;52.248;-0.844;2023-03-12T16:56:14;11.60;;;2.70;;
62925;SDS011;55732;52.248;-0.844;2023-03-12T16:58:42;13.70;;;3.10;;
62925;SDS011;55732;52.248;-0.844;2023-03-12T17:01:11;9.90;;;2.30;;
62925;SDS011;55732;52.248;-0.844;2023-03-12T17:03:38;10.70;;;2.80;;
62925;SDS011;55732;52.248;-0.844;2023-03-12T17:06:12;11.90;;;2.80;;
62925;SDS011;55732;52.248;-0.844;2023-03-12T17:08:42;7.90;;;2.40;;
62925;SDS011;55732;52.248;-0.844;2023-03-12T17:11:19;10.80;;;2.60;;
62925;SDS011;55732;52.248;-0.844;2023-03-12T17:13:49;4.60;;;1.80;;
62925;SDS011;55732;52.248;-0.844;2023-03-12T17:16:18;12.50;;;2.80;;